sensor_id;sensor_type;location;lat;lon;timestamp;temperature;humidity
19892;DHT22;10108;50.142;8.724;2023-02-12T00:00:47;6.90;99.90
19892;DHT22;10108;50.142;8.724;2023-02-12T00:03:13;6.90;99.90
19892;DHT22;10108;50.142;8.724;2023-02-12T00:05:40;7.00;99.90
19892;DHT22;10108;50.142;8.724;2023-02-12T00:08:07;7.00;99.90
19892;DHT22;10108;50.142;8.724;2023-02-12T00:10:34;7.00;99.90
19892;DHT22;10108;50.142;8.724;2023-02-12T00:13:00;7.00;99.90
19892;DHT22;10108;50.142;8.724;2023-02-12T00:15:26;7.00;99.90
19892;DHT22;10108;50.142;8.724;2023-02-12T00:17:52;7.00;99.90
19892;DHT22;10108;50.142;8.724;2023-02-12T00:20:18;7.00;99.90
19892;DHT22;10108;50.142;8.724;2023-02-12T00:22:44;7.00;99.90
19892;DHT22;10108;50.142;8.724;2023-02-12T00:25:11;7.00;99.90
19892;DHT22;10108;50.142;8.724;2023-02-12T00:27:38;7.00;99.90
19892;DHT22;10108;50.142;8.724;2023-02-12T00:30:05;7.00;99.90
19892;DHT22;10108;50.142;8.724;2023-02-12T00:32:31;7.00;99.90
19892;DHT22;10108;50.142;8.724;2023-02-12T00:34:57;7.00;99.90
19892;DHT22;10108;50.142;8.724;2023-02-12T00:37:23;6.90;99.90
19892;DHT22;10108;50.142;8.724;2023-02-12T00:39:52;6.90;99.90
19892;DHT22;10108;50.142;8.724;2023-02-12T00:42:19;6.90;99.90
19892;DHT22;10108;50.142;8.724;2023-02-12T00:44:45;6.90;99.90
19892;DHT22;10108;50.142;8.724;2023-02-12T00:47:11;6.80;99.90
19892;DHT22;10108;50.142;8.724;2023-02-12T00:49:37;6.80;99.90
19892;DHT22;10108;50.142;8.724;2023-02-12T00:52:04;6.80;99.90
19892;DHT22;10108;50.142;8.724;2023-02-12T00:54:30;6.80;99.90
19892;DHT22;10108;50.142;8.724;2023-02-12T00:56:57;6.80;99.90
19892;DHT22;10108;50.142;8.724;2023-02-12T00:59:28;6.80;99.90
19892;DHT22;10108;50.142;8.724;2023-02-12T01:01:56;6.80;99.90
19892;DHT22;10108;50.142;8.724;2023-02-12T01:04:24;6.80;99.90
19892;DHT22;10108;50.142;8.724;2023-02-12T01:06:50;6.80;99.90
19892;DHT22;10108;50.142;8.724;2023-02-12T01:09:18;6.80;99.90
19892;DHT22;10108;50.142;8.724;2023-02-12T01:11:44;6.80;99.90
19892;DHT22;10108;50.142;8.724;2023-02-12T01:14:10;6.70;99.90
19892;DHT22;10108;50.142;8.724;2023-02-12T01:16:36;6.70;99.90
19892;DHT22;10108;50.142;8.724;2023-02-12T01:19:03;6.70;99.90
19892;DHT22;10108;50.142;8.724;2023-02-12T01:21:32;6.70;99.90
19892;DHT22;10108;50.142;8.724;2023-02-12T01:24:00;6.70;99.90
19892;DHT22;10108;50.142;8.724;2023-02-12T01:26:27;6.70;99.90
19892;DHT22;10108;50.142;8.724;2023-02-12T01:28:56;6.80;99.90
19892;DHT22;10108;50.142;8.724;2023-02-12T01:31:25;6.80;99.90
19892;DHT22;10108;50.142;8.724;2023-02-12T01:33:54;6.80;99.90
19892;DHT22;10108;50.142;8.724;2023-02-12T01:36:22;6.80;99.90
19892;DHT22;10108;50.142;8.724;2023-02-12T01:38:49;6.80;99.90
19892;DHT22;10108;50.142;8.724;2023-02-12T01:41:18;6.80;99.90
19892;DHT22;10108;50.142;8.724;2023-02-12T01:44:02;6.90;99.90
19892;DHT22;10108;50.142;8.724;2023-02-12T01:46:30;6.90;99.90
19892;DHT22;10108;50.142;8.724;2023-02-12T01:48:56;6.90;99.90
19892;DHT22;10108;50.142;8.724;2023-02-12T01:51:23;6.90;99.90
19892;DHT22;10108;50.142;8.724;2023-02-12T01:53:53;6.90;99.90
19892;DHT22;10108;50.142;8.724;2023-02-12T01:56:21;6.90;99.90
19892;DHT22;10108;50.142;8.724;2023-02-12T01:58:50;6.90;99.90
19892;DHT22;10108;50.142;8.724;2023-02-12T02:01:20;6.80;99.90
19892;DHT22;10108;50.142;8.724;2023-02-12T02:03:51;6.80;99.90
19892;DHT22;10108;50.142;8.724;2023-02-12T02:06:24;6.80;99.90
19892;DHT22;10108;50.142;8.724;2023-02-12T02:08:53;6.80;99.90
19892;DHT22;10108;50.142;8.724;2023-02-12T02:11:20;6.90;99.90
19892;DHT22;10108;50.142;8.724;2023-02-12T02:14:05;6.90;99.90
19892;DHT22;10108;50.142;8.724;2023-02-12T02:22:36;6.80;99.90
19892;DHT22;10108;50.142;8.724;2023-02-12T02:31:02;6.90;99.90
19892;DHT22;10108;50.142;8.724;2023-02-12T02:41:33;7.00;99.90
19892;DHT22;10108;50.142;8.724;2023-02-12T02:44:06;7.00;99.90
19892;DHT22;10108;50.142;8.724;2023-02-12T02:49:12;6.90;99.90
19892;DHT22;10108;50.142;8.724;2023-02-12T02:51:42;6.90;99.90
19892;DHT22;10108;50.142;8.724;2023-02-12T02:54:20;6.90;99.90
19892;DHT22;10108;50.142;8.724;2023-02-12T02:56:51;6.90;99.90
19892;DHT22;10108;50.142;8.724;2023-02-12T02:59:24;6.90;99.90
19892;DHT22;10108;50.142;8.724;2023-02-12T03:02:07;7.00;99.90
19892;DHT22;10108;50.142;8.724;2023-02-12T03:04:41;7.00;99.90
19892;DHT22;10108;50.142;8.724;2023-02-12T03:07:12;7.00;99.90
19892;DHT22;10108;50.142;8.724;2023-02-12T03:09:48;7.00;99.90
19892;DHT22;10108;50.142;8.724;2023-02-12T03:12:19;7.00;99.90
19892;DHT22;10108;50.142;8.724;2023-02-12T03:14:51;6.90;99.90
19892;DHT22;10108;50.142;8.724;2023-02-12T03:17:23;6.80;99.90
19892;DHT22;10108;50.142;8.724;2023-02-12T03:19:56;6.70;99.90
19892;DHT22;10108;50.142;8.724;2023-02-12T03:22:31;6.70;99.90
19892;DHT22;10108;50.142;8.724;2023-02-12T03:25:03;6.70;99.90
19892;DHT22;10108;50.142;8.724;2023-02-12T03:27:43;6.80;99.90
19892;DHT22;10108;50.142;8.724;2023-02-12T03:30:12;6.70;99.90
19892;DHT22;10108;50.142;8.724;2023-02-12T03:32:56;6.60;99.90
19892;DHT22;10108;50.142;8.724;2023-02-12T03:35:34;6.50;99.90
19892;DHT22;10108;50.142;8.724;2023-02-12T03:41:19;6.50;99.90
19892;DHT22;10108;50.142;8.724;2023-02-12T03:43:53;6.50;99.90
19892;DHT22;10108;50.142;8.724;2023-02-12T03:49:11;6.40;99.90
19892;DHT22;10108;50.142;8.724;2023-02-12T03:51:44;6.40;99.90
19892;DHT22;10108;50.142;8.724;2023-02-12T03:54:13;6.40;99.90
19892;DHT22;10108;50.142;8.724;2023-02-12T03:56:51;6.30;99.90
19892;DHT22;10108;50.142;8.724;2023-02-12T03:59:20;6.30;99.90
19892;DHT22;10108;50.142;8.724;2023-02-12T04:01:48;6.30;99.90
19892;DHT22;10108;50.142;8.724;2023-02-12T04:04:14;6.30;99.90
19892;DHT22;10108;50.142;8.724;2023-02-12T04:06:41;6.30;99.90
19892;DHT22;10108;50.142;8.724;2023-02-12T04:09:09;6.40;99.90
19892;DHT22;10108;50.142;8.724;2023-02-12T04:12:06;6.40;99.90
19892;DHT22;10108;50.142;8.724;2023-02-12T04:17:29;6.50;99.90
19892;DHT22;10108;50.142;8.724;2023-02-12T04:20:03;6.50;99.90
19892;DHT22;10108;50.142;8.724;2023-02-12T04:22:49;6.50;99.90
19892;DHT22;10108;50.142;8.724;2023-02-12T04:28:03;6.40;99.90
19892;DHT22;10108;50.142;8.724;2023-02-12T04:30:38;6.40;99.90
19892;DHT22;10108;50.142;8.724;2023-02-12T04:33:09;6.50;99.90
19892;DHT22;10108;50.142;8.724;2023-02-12T04:35:51;6.50;99.90
19892;DHT22;10108;50.142;8.724;2023-02-12T04:38:35;6.50;99.90
19892;DHT22;10108;50.142;8.724;2023-02-12T04:41:05;6.50;99.90
19892;DHT22;10108;50.142;8.724;2023-02-12T04:43:34;6.60;99.90
19892;DHT22;10108;50.142;8.724;2023-02-12T04:46:02;6.60;99.90
19892;DHT22;10108;50.142;8.724;2023-02-12T04:48:28;6.50;99.90
19892;DHT22;10108;50.142;8.724;2023-02-12T04:50:54;6.50;99.90
19892;DHT22;10108;50.142;8.724;2023-02-12T04:53:20;6.50;99.90
19892;DHT22;10108;50.142;8.724;2023-02-12T04:55:47;6.50;99.90
19892;DHT22;10108;50.142;8.724;2023-02-12T04:58:14;6.50;99.90
19892;DHT22;10108;50.142;8.724;2023-02-12T05:00:40;6.50;99.90
19892;DHT22;10108;50.142;8.724;2023-02-12T05:03:06;6.50;99.90
19892;DHT22;10108;50.142;8.724;2023-02-12T05:05:32;6.50;99.90
19892;DHT22;10108;50.142;8.724;2023-02-12T05:07:59;6.50;99.90
19892;DHT22;10108;50.142;8.724;2023-02-12T05:10:25;6.50;99.90
19892;DHT22;10108;50.142;8.724;2023-02-12T05:12:52;6.40;99.90
19892;DHT22;10108;50.142;8.724;2023-02-12T05:15:19;6.40;99.90
19892;DHT22;10108;50.142;8.724;2023-02-12T05:17:45;6.40;99.90
19892;DHT22;10108;50.142;8.724;2023-02-12T05:20:12;6.40;99.90
19892;DHT22;10108;50.142;8.724;2023-02-12T05:22:38;6.40;99.90
19892;DHT22;10108;50.142;8.724;2023-02-12T05:25:05;6.30;99.90
19892;DHT22;10108;50.142;8.724;2023-02-12T05:27:31;6.30;99.90
19892;DHT22;10108;50.142;8.724;2023-02-12T05:29:57;6.30;99.90
19892;DHT22;10108;50.142;8.724;2023-02-12T05:32:23;6.30;99.90
19892;DHT22;10108;50.142;8.724;2023-02-12T05:34:49;6.30;99.90
19892;DHT22;10108;50.142;8.724;2023-02-12T05:37:16;6.30;99.90
19892;DHT22;10108;50.142;8.724;2023-02-12T05:39:42;6.30;99.90
19892;DHT22;10108;50.142;8.724;2023-02-12T05:42:08;6.40;99.90
19892;DHT22;10108;50.142;8.724;2023-02-12T05:44:34;6.50;99.90
19892;DHT22;10108;50.142;8.724;2023-02-12T05:47:00;6.50;99.90
19892;DHT22;10108;50.142;8.724;2023-02-12T05:49:26;6.60;99.90
19892;DHT22;10108;50.142;8.724;2023-02-12T05:51:52;6.70;99.90
19892;DHT22;10108;50.142;8.724;2023-02-12T05:54:19;6.70;99.90
19892;DHT22;10108;50.142;8.724;2023-02-12T05:56:46;6.70;99.90
19892;DHT22;10108;50.142;8.724;2023-02-12T05:59:18;6.70;99.90
19892;DHT22;10108;50.142;8.724;2023-02-12T06:01:47;6.70;99.90
19892;DHT22;10108;50.142;8.724;2023-02-12T06:04:18;6.70;99.90
19892;DHT22;10108;50.142;8.724;2023-02-12T06:06:45;6.70;99.90
19892;DHT22;10108;50.142;8.724;2023-02-12T06:09:13;6.80;99.90
19892;DHT22;10108;50.142;8.724;2023-02-12T06:11:39;6.80;99.90
19892;DHT22;10108;50.142;8.724;2023-02-12T06:14:07;6.80;99.90
19892;DHT22;10108;50.142;8.724;2023-02-12T06:16:34;6.80;99.90
19892;DHT22;10108;50.142;8.724;2023-02-12T06:19:02;6.70;99.90
19892;DHT22;10108;50.142;8.724;2023-02-12T06:21:29;6.70;99.90
19892;DHT22;10108;50.142;8.724;2023-02-12T06:23:55;6.60;99.90
19892;DHT22;10108;50.142;8.724;2023-02-12T06:26:22;6.40;99.90
19892;DHT22;10108;50.142;8.724;2023-02-12T06:28:49;6.40;99.90
19892;DHT22;10108;50.142;8.724;2023-02-12T06:31:23;6.30;99.90
19892;DHT22;10108;50.142;8.724;2023-02-12T06:33:50;6.30;99.90
19892;DHT22;10108;50.142;8.724;2023-02-12T06:36:17;6.20;99.90
19892;DHT22;10108;50.142;8.724;2023-02-12T06:38:43;6.10;99.90
19892;DHT22;10108;50.142;8.724;2023-02-12T06:41:10;6.10;99.90
19892;DHT22;10108;50.142;8.724;2023-02-12T06:43:36;6.00;99.90
19892;DHT22;10108;50.142;8.724;2023-02-12T06:46:03;5.90;99.90
19892;DHT22;10108;50.142;8.724;2023-02-12T06:48:29;5.90;99.90
19892;DHT22;10108;50.142;8.724;2023-02-12T06:51:03;5.90;99.90
19892;DHT22;10108;50.142;8.724;2023-02-12T06:53:30;5.90;99.90
19892;DHT22;10108;50.142;8.724;2023-02-12T06:55:56;5.90;99.90
19892;DHT22;10108;50.142;8.724;2023-02-12T06:58:22;5.90;99.90
19892;DHT22;10108;50.142;8.724;2023-02-12T07:00:48;5.90;99.90
19892;DHT22;10108;50.142;8.724;2023-02-12T07:03:14;5.90;99.90
19892;DHT22;10108;50.142;8.724;2023-02-12T07:05:40;5.90;99.90
19892;DHT22;10108;50.142;8.724;2023-02-12T07:08:06;6.00;99.90
19892;DHT22;10108;50.142;8.724;2023-02-12T07:10:32;6.10;99.90
19892;DHT22;10108;50.142;8.724;2023-02-12T07:12:58;6.10;99.90
19892;DHT22;10108;50.142;8.724;2023-02-12T07:15:25;6.10;99.90
19892;DHT22;10108;50.142;8.724;2023-02-12T07:17:51;6.10;99.90
19892;DHT22;10108;50.142;8.724;2023-02-12T07:20:17;6.10;99.90
19892;DHT22;10108;50.142;8.724;2023-02-12T07:22:43;6.20;99.90
19892;DHT22;10108;50.142;8.724;2023-02-12T07:25:09;6.20;99.90
19892;DHT22;10108;50.142;8.724;2023-02-12T07:27:36;6.20;99.90
19892;DHT22;10108;50.142;8.724;2023-02-12T07:30:04;6.30;99.90
19892;DHT22;10108;50.142;8.724;2023-02-12T07:32:32;6.30;99.90
19892;DHT22;10108;50.142;8.724;2023-02-12T07:34:58;6.30;99.90
19892;DHT22;10108;50.142;8.724;2023-02-12T07:37:24;6.30;99.90
19892;DHT22;10108;50.142;8.724;2023-02-12T07:39:50;6.30;99.90
19892;DHT22;10108;50.142;8.724;2023-02-12T07:42:17;6.30;99.90
19892;DHT22;10108;50.142;8.724;2023-02-12T07:44:48;6.30;99.90
19892;DHT22;10108;50.142;8.724;2023-02-12T07:47:15;6.30;99.90
19892;DHT22;10108;50.142;8.724;2023-02-12T07:49:41;6.20;99.90
19892;DHT22;10108;50.142;8.724;2023-02-12T07:52:07;6.20;99.90
19892;DHT22;10108;50.142;8.724;2023-02-12T07:54:34;6.10;99.90
19892;DHT22;10108;50.142;8.724;2023-02-12T07:57:00;6.00;99.90
19892;DHT22;10108;50.142;8.724;2023-02-12T07:59:26;6.00;99.90
19892;DHT22;10108;50.142;8.724;2023-02-12T08:01:53;6.00;99.90
19892;DHT22;10108;50.142;8.724;2023-02-12T08:04:21;6.00;99.90
19892;DHT22;10108;50.142;8.724;2023-02-12T08:06:50;6.00;99.90
19892;DHT22;10108;50.142;8.724;2023-02-12T08:09:19;6.00;99.90
19892;DHT22;10108;50.142;8.724;2023-02-12T08:11:45;6.00;99.90
19892;DHT22;10108;50.142;8.724;2023-02-12T08:14:13;6.00;99.90
19892;DHT22;10108;50.142;8.724;2023-02-12T08:16:41;6.00;99.90
19892;DHT22;10108;50.142;8.724;2023-02-12T08:19:08;6.10;99.90
19892;DHT22;10108;50.142;8.724;2023-02-12T08:21:35;6.10;99.90
19892;DHT22;10108;50.142;8.724;2023-02-12T08:24:01;6.10;99.90
19892;DHT22;10108;50.142;8.724;2023-02-12T08:26:30;6.20;99.90
19892;DHT22;10108;50.142;8.724;2023-02-12T08:28:59;6.20;99.90
19892;DHT22;10108;50.142;8.724;2023-02-12T08:31:29;6.30;99.90
19892;DHT22;10108;50.142;8.724;2023-02-12T08:33:56;6.40;99.90
19892;DHT22;10108;50.142;8.724;2023-02-12T08:36:28;6.40;99.90
19892;DHT22;10108;50.142;8.724;2023-02-12T08:38:57;6.40;99.90
19892;DHT22;10108;50.142;8.724;2023-02-12T08:41:26;6.50;99.90
19892;DHT22;10108;50.142;8.724;2023-02-12T08:43:56;6.60;99.90
19892;DHT22;10108;50.142;8.724;2023-02-12T08:46:25;6.60;99.90
19892;DHT22;10108;50.142;8.724;2023-02-12T08:48:56;6.70;99.90
19892;DHT22;10108;50.142;8.724;2023-02-12T08:51:25;6.70;99.90
19892;DHT22;10108;50.142;8.724;2023-02-12T08:53:54;6.70;99.90
19892;DHT22;10108;50.142;8.724;2023-02-12T08:56:21;6.70;99.90
19892;DHT22;10108;50.142;8.724;2023-02-12T08:58:48;6.80;99.90
19892;DHT22;10108;50.142;8.724;2023-02-12T09:01:18;6.80;99.90
19892;DHT22;10108;50.142;8.724;2023-02-12T09:03:45;6.80;99.90
19892;DHT22;10108;50.142;8.724;2023-02-12T09:06:12;6.80;99.90
19892;DHT22;10108;50.142;8.724;2023-02-12T09:08:39;6.90;99.90
19892;DHT22;10108;50.142;8.724;2023-02-12T09:11:13;6.90;99.90
19892;DHT22;10108;50.142;8.724;2023-02-12T09:13:42;6.90;99.90
19892;DHT22;10108;50.142;8.724;2023-02-12T09:16:09;6.80;99.90
19892;DHT22;10108;50.142;8.724;2023-02-12T09:18:35;6.80;99.90
19892;DHT22;10108;50.142;8.724;2023-02-12T09:21:05;6.80;99.90
19892;DHT22;10108;50.142;8.724;2023-02-12T09:23:31;6.80;99.90
19892;DHT22;10108;50.142;8.724;2023-02-12T09:25:58;6.80;99.90
19892;DHT22;10108;50.142;8.724;2023-02-12T09:28:24;6.80;99.90
19892;DHT22;10108;50.142;8.724;2023-02-12T09:30:50;6.90;99.90
19892;DHT22;10108;50.142;8.724;2023-02-12T09:33:17;6.90;99.90
19892;DHT22;10108;50.142;8.724;2023-02-12T09:35:43;6.90;99.90
19892;DHT22;10108;50.142;8.724;2023-02-12T09:38:09;7.00;99.90
19892;DHT22;10108;50.142;8.724;2023-02-12T09:43:48;6.90;99.90
19892;DHT22;10108;50.142;8.724;2023-02-12T09:49:15;7.00;99.90
19892;DHT22;10108;50.142;8.724;2023-02-12T09:51:47;7.10;99.90
19892;DHT22;10108;50.142;8.724;2023-02-12T09:54:21;7.10;99.90
19892;DHT22;10108;50.142;8.724;2023-02-12T09:56:54;7.10;99.90
19892;DHT22;10108;50.142;8.724;2023-02-12T09:59:41;7.10;99.90
19892;DHT22;10108;50.142;8.724;2023-02-12T10:02:16;7.20;99.90
19892;DHT22;10108;50.142;8.724;2023-02-12T10:04:47;7.20;99.90
19892;DHT22;10108;50.142;8.724;2023-02-12T10:12:56;7.30;99.90
19892;DHT22;10108;50.142;8.724;2023-02-12T10:15:41;7.40;99.90
19892;DHT22;10108;50.142;8.724;2023-02-12T10:18:42;7.40;99.90
19892;DHT22;10108;50.142;8.724;2023-02-12T10:21:16;7.40;99.90
19892;DHT22;10108;50.142;8.724;2023-02-12T10:24:04;7.50;99.90
19892;DHT22;10108;50.142;8.724;2023-02-12T10:26:47;7.50;99.90
19892;DHT22;10108;50.142;8.724;2023-02-12T10:29:22;7.60;99.90
19892;DHT22;10108;50.142;8.724;2023-02-12T10:32:04;7.60;99.90
19892;DHT22;10108;50.142;8.724;2023-02-12T10:34:34;7.60;99.90
19892;DHT22;10108;50.142;8.724;2023-02-12T10:39:45;7.60;99.90
19892;DHT22;10108;50.142;8.724;2023-02-12T10:42:38;7.60;99.90
19892;DHT22;10108;50.142;8.724;2023-02-12T10:45:15;7.60;99.90
19892;DHT22;10108;50.142;8.724;2023-02-12T10:47:43;7.60;99.90
19892;DHT22;10108;50.142;8.724;2023-02-12T10:52:59;7.70;99.90
19892;DHT22;10108;50.142;8.724;2023-02-12T10:57:56;7.70;99.90
19892;DHT22;10108;50.142;8.724;2023-02-12T11:00:36;7.80;99.90
19892;DHT22;10108;50.142;8.724;2023-02-12T11:05:40;7.90;99.90
19892;DHT22;10108;50.142;8.724;2023-02-12T11:08:07;7.90;99.90
19892;DHT22;10108;50.142;8.724;2023-02-12T11:10:40;8.00;99.90
19892;DHT22;10108;50.142;8.724;2023-02-12T11:13:22;8.00;99.90
19892;DHT22;10108;50.142;8.724;2023-02-12T11:15:50;8.10;99.90
19892;DHT22;10108;50.142;8.724;2023-02-12T11:18:22;8.20;99.90
19892;DHT22;10108;50.142;8.724;2023-02-12T11:21:10;8.20;99.90
19892;DHT22;10108;50.142;8.724;2023-02-12T11:23:40;8.20;99.90
19892;DHT22;10108;50.142;8.724;2023-02-12T11:26:22;8.20;99.90
19892;DHT22;10108;50.142;8.724;2023-02-12T11:28:53;8.30;99.90
19892;DHT22;10108;50.142;8.724;2023-02-12T11:46:59;8.50;99.90
19892;DHT22;10108;50.142;8.724;2023-02-12T11:49:31;8.70;99.90
19892;DHT22;10108;50.142;8.724;2023-02-12T11:52:00;8.70;99.90
19892;DHT22;10108;50.142;8.724;2023-02-12T11:54:34;8.70;99.90
19892;DHT22;10108;50.142;8.724;2023-02-12T11:57:02;8.70;99.90
19892;DHT22;10108;50.142;8.724;2023-02-12T11:59:37;8.80;99.90
19892;DHT22;10108;50.142;8.724;2023-02-12T12:02:30;8.80;99.90
19892;DHT22;10108;50.142;8.724;2023-02-12T12:05:11;8.80;99.90
19892;DHT22;10108;50.142;8.724;2023-02-12T12:07:43;8.80;99.90
19892;DHT22;10108;50.142;8.724;2023-02-12T12:12:53;8.80;99.90
19892;DHT22;10108;50.142;8.724;2023-02-12T12:15:25;8.80;99.90
19892;DHT22;10108;50.142;8.724;2023-02-12T12:21:53;8.90;99.90
19892;DHT22;10108;50.142;8.724;2023-02-12T12:24:48;8.90;99.90
19892;DHT22;10108;50.142;8.724;2023-02-12T12:33:05;9.00;99.90
19892;DHT22;10108;50.142;8.724;2023-02-12T12:35:53;9.00;99.90
19892;DHT22;10108;50.142;8.724;2023-02-12T12:38:36;8.90;99.90
19892;DHT22;10108;50.142;8.724;2023-02-12T12:41:23;8.90;99.90
19892;DHT22;10108;50.142;8.724;2023-02-12T12:46:44;8.80;99.90
19892;DHT22;10108;50.142;8.724;2023-02-12T13:08:19;8.70;99.90
19892;DHT22;10108;50.142;8.724;2023-02-12T13:10:56;8.80;99.90
19892;DHT22;10108;50.142;8.724;2023-02-12T13:13:34;8.80;99.90
19892;DHT22;10108;50.142;8.724;2023-02-12T13:19:01;8.90;99.90
19892;DHT22;10108;50.142;8.724;2023-02-12T13:36:44;8.80;99.90
19892;DHT22;10108;50.142;8.724;2023-02-12T13:39:21;8.80;99.90
19892;DHT22;10108;50.142;8.724;2023-02-12T13:42:06;8.80;99.90
19892;DHT22;10108;50.142;8.724;2023-02-12T13:44:40;8.80;99.90
19892;DHT22;10108;50.142;8.724;2023-02-12T13:47:24;8.90;99.90
19892;DHT22;10108;50.142;8.724;2023-02-12T13:52:40;8.90;99.90
19892;DHT22;10108;50.142;8.724;2023-02-12T13:55:28;9.00;99.90
19892;DHT22;10108;50.142;8.724;2023-02-12T14:03:34;9.00;99.90
19892;DHT22;10108;50.142;8.724;2023-02-12T14:09:06;9.00;99.90
19892;DHT22;10108;50.142;8.724;2023-02-12T14:11:32;9.10;99.90
19892;DHT22;10108;50.142;8.724;2023-02-12T14:36:46;9.00;99.90
19892;DHT22;10108;50.142;8.724;2023-02-12T14:41:50;9.00;99.90
19892;DHT22;10108;50.142;8.724;2023-02-12T14:46:52;9.10;99.90
19892;DHT22;10108;50.142;8.724;2023-02-12T14:52:18;9.10;99.90
19892;DHT22;10108;50.142;8.724;2023-02-12T14:54:57;9.10;99.90
19892;DHT22;10108;50.142;8.724;2023-02-12T14:57:29;9.10;99.90
19892;DHT22;10108;50.142;8.724;2023-02-12T14:59:58;9.10;99.90
19892;DHT22;10108;50.142;8.724;2023-02-12T15:02:28;9.10;99.90
19892;DHT22;10108;50.142;8.724;2023-02-12T15:05:22;9.10;99.90
19892;DHT22;10108;50.142;8.724;2023-02-12T15:08:06;9.00;99.90
19892;DHT22;10108;50.142;8.724;2023-02-12T15:10:38;9.00;99.90
19892;DHT22;10108;50.142;8.724;2023-02-12T15:13:25;9.00;99.90
19892;DHT22;10108;50.142;8.724;2023-02-12T15:21:45;9.00;99.90
19892;DHT22;10108;50.142;8.724;2023-02-12T15:24:13;9.00;99.90
19892;DHT22;10108;50.142;8.724;2023-02-12T15:26:49;9.10;99.90
19892;DHT22;10108;50.142;8.724;2023-02-12T15:29:20;9.00;99.90
19892;DHT22;10108;50.142;8.724;2023-02-12T15:31:58;9.00;99.90
19892;DHT22;10108;50.142;8.724;2023-02-12T15:34:29;9.00;99.90
19892;DHT22;10108;50.142;8.724;2023-02-12T15:37:00;9.00;99.90
19892;DHT22;10108;50.142;8.724;2023-02-12T15:39:38;9.00;99.90
19892;DHT22;10108;50.142;8.724;2023-02-12T15:42:23;9.00;99.90
19892;DHT22;10108;50.142;8.724;2023-02-12T15:49:48;8.90;99.90
19892;DHT22;10108;50.142;8.724;2023-02-12T15:52:18;9.00;99.90
19892;DHT22;10108;50.142;8.724;2023-02-12T15:54:46;8.90;99.90
19892;DHT22;10108;50.142;8.724;2023-02-12T15:57:20;9.00;99.90
19892;DHT22;10108;50.142;8.724;2023-02-12T17:40:03;8.70;99.90
19892;DHT22;10108;50.142;8.724;2023-02-12T17:42:29;8.70;99.90
19892;DHT22;10108;50.142;8.724;2023-02-12T17:44:55;8.40;99.90
19892;DHT22;10108;50.142;8.724;2023-02-12T17:47:21;8.70;99.90
19892;DHT22;10108;50.142;8.724;2023-02-12T18:02:04;8.70;99.90
19892;DHT22;10108;50.142;8.724;2023-02-12T18:04:30;8.70;99.90
19892;DHT22;10108;50.142;8.724;2023-02-12T18:07:02;8.70;99.90
19892;DHT22;10108;50.142;8.724;2023-02-12T18:11:54;8.60;99.90
19892;DHT22;10108;50.142;8.724;2023-02-12T18:29:00;8.60;99.90
19892;DHT22;10108;50.142;8.724;2023-02-12T18:31:27;8.70;99.90
19892;DHT22;10108;50.142;8.724;2023-02-12T19:01:13;8.70;99.90
19892;DHT22;10108;50.142;8.724;2023-02-12T19:10:59;8.60;99.90
19892;DHT22;10108;50.142;8.724;2023-02-12T19:25:37;8.50;99.90
19892;DHT22;10108;50.142;8.724;2023-02-12T19:28:12;8.50;99.90
19892;DHT22;10108;50.142;8.724;2023-02-12T19:30:39;8.50;99.90
19892;DHT22;10108;50.142;8.724;2023-02-12T19:33:06;8.50;99.90
19892;DHT22;10108;50.142;8.724;2023-02-12T19:35:32;8.40;99.90
19892;DHT22;10108;50.142;8.724;2023-02-12T19:37:59;8.40;99.90
19892;DHT22;10108;50.142;8.724;2023-02-12T19:40:26;8.40;99.90
19892;DHT22;10108;50.142;8.724;2023-02-12T19:55:06;8.40;99.90
19892;DHT22;10108;50.142;8.724;2023-02-12T20:17:10;8.40;99.90
19892;DHT22;10108;50.142;8.724;2023-02-12T20:19:36;8.40;99.90
19892;DHT22;10108;50.142;8.724;2023-02-12T20:22:02;8.40;99.90
19892;DHT22;10108;50.142;8.724;2023-02-12T20:24:31;8.40;99.90
19892;DHT22;10108;50.142;8.724;2023-02-12T20:26:59;8.40;99.90
19892;DHT22;10108;50.142;8.724;2023-02-12T20:29:25;8.40;99.90
19892;DHT22;10108;50.142;8.724;2023-02-12T20:31:52;8.40;99.90
19892;DHT22;10108;50.142;8.724;2023-02-12T20:34:19;8.40;99.90
19892;DHT22;10108;50.142;8.724;2023-02-12T20:36:45;8.40;99.90
19892;DHT22;10108;50.142;8.724;2023-02-12T20:39:14;8.40;99.90
19892;DHT22;10108;50.142;8.724;2023-02-12T20:41:41;8.40;99.90
19892;DHT22;10108;50.142;8.724;2023-02-12T20:44:10;8.40;99.90
19892;DHT22;10108;50.142;8.724;2023-02-12T20:46:37;8.30;99.90
19892;DHT22;10108;50.142;8.724;2023-02-12T20:49:05;8.30;99.90
19892;DHT22;10108;50.142;8.724;2023-02-12T20:51:31;8.30;99.90
19892;DHT22;10108;50.142;8.724;2023-02-12T20:54:01;8.30;99.90
19892;DHT22;10108;50.142;8.724;2023-02-12T20:56:30;8.30;99.90
19892;DHT22;10108;50.142;8.724;2023-02-12T20:58:58;8.30;99.90
19892;DHT22;10108;50.142;8.724;2023-02-12T21:01:27;8.30;99.90
19892;DHT22;10108;50.142;8.724;2023-02-12T21:03:57;8.30;99.90
19892;DHT22;10108;50.142;8.724;2023-02-12T21:06:25;8.30;99.90
19892;DHT22;10108;50.142;8.724;2023-02-12T21:11:22;8.30;99.90
19892;DHT22;10108;50.142;8.724;2023-02-12T21:13:51;8.30;99.90
19892;DHT22;10108;50.142;8.724;2023-02-12T21:16:27;8.30;99.90
19892;DHT22;10108;50.142;8.724;2023-02-12T21:18:54;8.30;99.90
19892;DHT22;10108;50.142;8.724;2023-02-12T21:38:54;8.40;99.90
19892;DHT22;10108;50.142;8.724;2023-02-12T21:41:23;8.40;99.90
19892;DHT22;10108;50.142;8.724;2023-02-12T21:43:52;8.30;99.90
19892;DHT22;10108;50.142;8.724;2023-02-12T21:46:20;8.30;99.90
19892;DHT22;10108;50.142;8.724;2023-02-12T21:48:47;8.30;99.90
19892;DHT22;10108;50.142;8.724;2023-02-12T21:51:25;8.30;99.90
19892;DHT22;10108;50.142;8.724;2023-02-12T21:53:55;8.30;99.90
19892;DHT22;10108;50.142;8.724;2023-02-12T21:56:22;8.30;99.90
19892;DHT22;10108;50.142;8.724;2023-02-12T21:58:49;8.30;99.90
19892;DHT22;10108;50.142;8.724;2023-02-12T22:01:26;8.40;99.90
19892;DHT22;10108;50.142;8.724;2023-02-12T22:03:52;8.40;99.90
19892;DHT22;10108;50.142;8.724;2023-02-12T22:06:20;8.40;99.90
19892;DHT22;10108;50.142;8.724;2023-02-12T22:08:51;8.40;99.90
19892;DHT22;10108;50.142;8.724;2023-02-12T22:11:17;8.40;99.90
19892;DHT22;10108;50.142;8.724;2023-02-12T22:13:44;8.40;99.90
19892;DHT22;10108;50.142;8.724;2023-02-12T22:16:22;8.40;99.90
19892;DHT22;10108;50.142;8.724;2023-02-12T22:18:51;8.40;99.90
19892;DHT22;10108;50.142;8.724;2023-02-12T22:21:21;8.40;99.90
19892;DHT22;10108;50.142;8.724;2023-02-12T22:23:49;8.40;99.90
19892;DHT22;10108;50.142;8.724;2023-02-12T22:36:19;8.40;99.90
19892;DHT22;10108;50.142;8.724;2023-02-12T22:56:05;8.40;99.90
19892;DHT22;10108;50.142;8.724;2023-02-12T22:58:31;8.40;99.90
19892;DHT22;10108;50.142;8.724;2023-02-12T23:01:06;8.40;99.90
19892;DHT22;10108;50.142;8.724;2023-02-12T23:06:06;8.40;99.90
19892;DHT22;10108;50.142;8.724;2023-02-12T23:08:33;8.40;99.90
19892;DHT22;10108;50.142;8.724;2023-02-12T23:10:59;8.40;99.90
19892;DHT22;10108;50.142;8.724;2023-02-12T23:13:26;8.40;99.90
19892;DHT22;10108;50.142;8.724;2023-02-12T23:15:52;8.40;99.90
19892;DHT22;10108;50.142;8.724;2023-02-12T23:18:21;8.40;99.90